Time,TemperatureF,DewpointF,PressureIn,WindDirection,WindDirectionDegrees,WindSpeedMPH,WindSpeedGustMPH,Humidity,HourlyPrecipIn,Conditions,Clouds,dailyrainin,SoftwareType,DateUTC
2013-01-22 00:04:00,1.0,-3.0,30.22,NNW,327,4.0,7.0,83,0.00,,,0.00,,2013-01-22 05:04:00,
2013-01-22 00:12:00,1.0,-3.0,30.22,NNW,327,4.0,7.0,83,0.00,,,0.00,,2013-01-22 05:12:00,
2013-01-22 00:23:00,1.0,-3.0,30.22,NNW,327,4.0,7.0,83,0.00,,,0.00,,2013-01-22 05:23:00,
2013-01-22 00:32:00,1.0,-3.0,30.22,NNW,327,4.0,7.0,83,0.00,,,0.00,,2013-01-22 05:32:00,
2013-01-22 06:02:00,-1.0,-6.0,30.18,NNW,331,0.0,0.0,79,0.00,,,0.00,,2013-01-22 11:02:00,
2013-01-22 06:12:00,-1.0,-6.0,30.18,NNW,331,0.0,0.0,79,0.00,,,0.00,,2013-01-22 11:12:00,
2013-01-22 06:23:00,-1.0,-6.0,30.19,WNW,284,0.0,4.0,79,0.00,,,0.00,,2013-01-22 11:23:00,
2013-01-22 06:33:00,-1.0,-6.0,30.19,NW,307,0.0,2.0,80,0.00,,,0.00,,2013-01-22 11:33:00,
2013-01-22 06:43:00,-1.0,-6.0,30.19,NW,307,0.0,2.0,80,0.00,,,0.00,,2013-01-22 11:43:00,
2013-01-22 06:53:00,-1.0,-5.0,30.19,WNW,296,0.0,2.0,81,0.00,,,0.00,,2013-01-22 11:53:00,
2013-01-22 07:04:00,-1.0,-6.0,30.19,WNW,300,0.0,3.0,80,0.00,,,0.00,,2013-01-22 12:04:00,
2013-01-22 07:13:00,-1.0,-6.0,30.19,WNW,300,0.0,3.0,80,0.00,,,0.00,,2013-01-22 12:13:00,
2013-01-22 07:23:00,-1.0,-6.0,30.20,WNW,292,0.0,2.0,80,0.00,,,0.00,,2013-01-22 12:23:00,
2013-01-22 07:33:00,-1.0,-6.0,30.20,WNW,292,0.0,2.0,80,0.00,,,0.00,,2013-01-22 12:33:00,
2013-01-22 07:43:00,-1.0,-5.0,30.20,WNW,292,0.0,0.0,81,0.00,,,0.00,,2013-01-22 12:43:00,
2013-01-22 07:53:00,-1.0,-5.0,30.20,WNW,292,0.0,1.0,81,0.00,,,0.00,,2013-01-22 12:53:00,
2013-01-22 08:04:00,-1.0,-5.0,30.21,WNW,292,0.0,1.0,81,0.00,,,0.00,,2013-01-22 13:04:00,
2013-01-22 08:14:00,-1.0,-5.0,30.21,WNW,292,0.0,1.0,81,0.00,,,0.00,,2013-01-22 13:14:00,
2013-01-22 08:23:00,-1.0,-5.0,30.21,WNW,292,0.0,1.0,81,0.00,,,0.00,,2013-01-22 13:23:00,
2013-01-22 08:33:00,-1.0,-5.0,30.22,WNW,292,0.0,1.0,81,0.00,,,0.00,,2013-01-22 13:33:00,
2013-01-22 08:43:00,-1.0,-5.0,30.22,WNW,292,0.0,1.0,81,0.00,,,0.00,,2013-01-22 13:43:00,
2013-01-22 08:53:00,-1.0,-5.0,30.22,NNW,330,1.0,2.0,81,0.00,,,0.00,,2013-01-22 13:53:00,
2013-01-22 09:03:00,0.0,-4.0,30.22,NW,309,0.0,1.0,81,0.00,,,0.00,,2013-01-22 14:03:00,
2013-01-22 09:13:00,0.0,-4.0,30.22,NW,309,0.0,1.0,81,0.00,,,0.00,,2013-01-22 14:13:00,
2013-01-22 09:23:00,1.0,-3.0,30.23,WNW,289,0.0,2.0,81,0.00,,,0.00,,2013-01-22 14:23:00,
2013-01-22 09:34:00,2.0,-3.0,30.24,West,279,0.0,2.0,80,0.00,,,0.00,,2013-01-22 14:34:00,
2013-01-22 09:44:00,2.0,-3.0,30.24,West,279,0.0,2.0,80,0.00,,,0.00,,2013-01-22 14:44:00,
2013-01-22 09:53:00,2.0,-3.0,30.23,NNE,28,1.0,5.0,79,0.00,,,0.00,,2013-01-22 14:53:00,
2013-01-22 10:04:00,3.0,-2.0,30.24,NW,316,2.0,7.0,78,0.00,,,0.00,,2013-01-22 15:04:00,
2013-01-22 10:13:00,3.0,-2.0,30.24,NW,316,2.0,7.0,78,0.00,,,0.00,,2013-01-22 15:13:00,
2013-01-22 10:23:00,3.0,-2.0,30.24,WNW,285,0.0,3.0,78,0.00,,,0.00,,2013-01-22 15:23:00,
2013-01-22 10:34:00,3.0,-3.0,30.24,NW,304,1.0,7.0,77,0.00,,,0.00,,2013-01-22 15:34:00,
2013-01-22 10:43:00,3.0,-3.0,30.24,NW,304,1.0,7.0,77,0.00,,,0.00,,2013-01-22 15:43:00,
2013-01-22 10:52:00,4.0,-2.0,30.25,North,350,6.0,9.0,76,0.00,,,0.00,,2013-01-22 15:52:00,
2013-01-22 11:03:00,4.0,-2.0,30.25,NNW,334,6.0,10.0,74,0.00,,,0.00,,2013-01-22 16:03:00,
2013-01-22 11:13:00,4.0,-2.0,30.25,NNW,334,6.0,10.0,74,0.00,,,0.00,,2013-01-22 16:13:00,
2013-01-22 11:24:00,4.0,-2.0,30.25,North,350,1.0,9.0,74,0.00,,,0.00,,2013-01-22 16:24:00,
2013-01-22 11:33:00,4.0,-3.0,30.25,NW,315,3.0,7.0,73,0.00,,,0.00,,2013-01-22 16:33:00,
2013-01-22 11:43:00,4.0,-3.0,30.25,NW,315,3.0,7.0,73,0.00,,,0.00,,2013-01-22 16:43:00,
2013-01-22 11:53:00,5.0,-3.0,30.25,NW,324,4.0,10.0,69,0.00,,,0.00,,2013-01-22 16:53:00,
2013-01-22 12:03:00,5.0,-3.0,30.24,North,360,2.0,4.0,69,0.00,,,0.00,,2013-01-22 17:03:00,
2013-01-22 12:13:00,5.0,-3.0,30.24,North,360,2.0,4.0,69,0.00,,,0.00,,2013-01-22 17:13:00,
2013-01-22 12:23:00,5.0,-3.0,30.24,NE,48,2.0,6.0,69,0.00,,,0.00,,2013-01-22 17:23:00,
2013-01-22 12:34:00,5.0,-3.0,30.24,North,360,1.0,9.0,69,0.00,,,0.00,,2013-01-22 17:34:00,
2013-01-22 12:44:00,5.0,-3.0,30.24,North,360,1.0,9.0,69,0.00,,,0.00,,2013-01-22 17:44:00,
2013-01-22 12:53:00,5.0,-3.0,30.24,ENE,74,3.0,6.0,70,0.00,,,0.00,,2013-01-22 17:53:00,
2013-01-22 13:04:00,5.0,-3.0,30.23,NE,41,3.0,9.0,69,0.00,,,0.00,,2013-01-22 18:04:00,
2013-01-22 13:13:00,5.0,-3.0,30.23,NE,41,3.0,9.0,69,0.00,,,0.00,,2013-01-22 18:13:00,
2013-01-22 13:23:00,6.0,-3.0,30.23,NE,38,5.0,8.0,67,0.00,,,0.00,,2013-01-22 18:23:00,
2013-01-22 13:34:00,6.0,-1.0,30.23,NNW,342,1.0,8.0,71,0.00,,,0.00,,2013-01-22 18:34:00,
2013-01-22 13:43:00,6.0,-1.0,30.23,NNW,342,1.0,8.0,71,0.00,,,0.00,,2013-01-22 18:43:00,
2013-01-22 13:53:00,6.0,-3.0,30.23,NE,34,4.0,11.0,67,0.00,,,0.00,,2013-01-22 18:53:00,
2013-01-22 14:03:00,6.0,-4.0,30.23,North,355,1.0,7.0,64,0.00,,,0.00,,2013-01-22 19:03:00,
2013-01-22 14:13:00,6.0,-4.0,30.23,North,355,1.0,7.0,64,0.00,,,0.00,,2013-01-22 19:13:00,
2013-01-22 14:23:00,7.0,-4.0,30.23,NW,305,8.0,11.0,61,0.00,,,0.00,,2013-01-22 19:23:00,
2013-01-22 14:34:00,7.0,-5.0,30.23,North,355,4.0,11.0,58,0.00,,,0.00,,2013-01-22 19:34:00,
2013-01-22 14:43:00,7.0,-5.0,30.23,North,355,4.0,11.0,58,0.00,,,0.00,,2013-01-22 19:43:00,
2013-01-22 14:53:00,8.0,-3.0,30.22,NNE,16,1.0,11.0,59,0.00,,,0.00,,2013-01-22 19:53:00,
2013-01-22 15:03:00,7.0,-4.0,30.23,SE,133,4.0,10.0,59,0.00,,,0.00,,2013-01-22 20:03:00,
2013-01-22 15:13:00,7.0,-4.0,30.23,SE,133,4.0,10.0,59,0.00,,,0.00,,2013-01-22 20:13:00,
2013-01-22 15:23:00,7.0,-4.0,30.23,NW,313,3.0,10.0,61,0.00,,,0.00,,2013-01-22 20:23:00,
2013-01-22 15:33:00,7.0,-4.0,30.23,NNW,329,3.0,8.0,60,0.00,,,0.00,,2013-01-22 20:33:00,
2013-01-22 15:43:00,7.0,-4.0,30.23,NNW,329,3.0,8.0,60,0.00,,,0.00,,2013-01-22 20:43:00,
2013-01-22 15:53:00,7.0,-3.0,30.23,NW,317,1.0,10.0,64,0.00,,,0.00,,2013-01-22 20:53:00,
2013-01-22 16:04:00,7.0,-3.0,30.23,NW,304,1.0,5.0,62,0.00,,,0.00,,2013-01-22 21:04:00,
2013-01-22 16:13:00,7.0,-3.0,30.23,NW,304,1.0,5.0,62,0.00,,,0.00,,2013-01-22 21:13:00,
2013-01-22 16:23:00,7.0,-4.0,30.23,NNW,335,4.0,7.0,61,0.00,,,0.00,,2013-01-22 21:23:00,
2013-01-22 16:33:00,7.0,-3.0,30.23,NNE,17,2.0,7.0,63,0.00,,,0.00,,2013-01-22 21:33:00,
2013-01-22 16:43:00,7.0,-3.0,30.23,NNE,17,2.0,7.0,63,0.00,,,0.00,,2013-01-22 21:43:00,
2013-01-22 16:53:00,6.0,-5.0,30.24,NE,34,4.0,10.0,59,0.00,,,0.00,,2013-01-22 21:53:00,
2013-01-22 17:03:00,6.0,-4.0,30.24,NW,323,2.0,9.0,62,0.00,,,0.00,,2013-01-22 22:03:00,
2013-01-22 17:13:00,6.0,-4.0,30.24,NW,323,2.0,9.0,62,0.00,,,0.00,,2013-01-22 22:13:00,
2013-01-22 17:22:00,6.0,-3.0,30.24,WNW,302,0.0,5.0,65,0.00,,,0.00,,2013-01-22 22:22:00,
2013-01-22 17:33:00,6.0,-3.0,30.24,WNW,302,0.0,5.0,65,0.00,,,0.00,,2013-01-22 22:33:00,
2013-01-22 17:43:00,5.0,-3.0,30.24,NW,314,0.0,4.0,68,0.00,,,0.00,,2013-01-22 22:43:00,
2013-01-22 17:53:00,5.0,-3.0,30.24,NW,314,0.0,2.0,69,0.00,,,0.00,,2013-01-22 22:53:00,
2013-01-22 18:03:00,4.0,-3.0,30.25,NW,306,0.0,2.0,71,0.00,,,0.00,,2013-01-22 23:03:00,
2013-01-22 18:12:00,4.0,-3.0,30.25,NW,306,0.0,2.0,71,0.00,,,0.00,,2013-01-22 23:12:00,
2013-01-22 18:24:00,4.0,-3.0,30.25,NW,306,0.0,1.0,72,0.00,,,0.00,,2013-01-22 23:24:00,
2013-01-22 18:33:00,4.0,-3.0,30.25,NW,306,0.0,0.0,73,0.00,,,0.00,,2013-01-22 23:33:00,
2013-01-22 18:43:00,4.0,-3.0,30.25,NW,306,0.0,0.0,73,0.00,,,0.00,,2013-01-22 23:43:00,
2013-01-22 18:53:00,3.0,-3.0,30.26,NW,306,0.0,0.0,75,0.00,,,0.00,,2013-01-22 23:53:00,
2013-01-22 19:03:00,3.0,-3.0,30.25,NW,306,0.0,0.0,77,0.00,,,0.00,,2013-01-23 00:03:00,
2013-01-22 19:12:00,3.0,-3.0,30.25,NW,306,0.0,0.0,77,0.00,,,0.00,,2013-01-23 00:12:00,
2013-01-22 19:23:00,3.0,-2.0,30.25,NW,306,0.0,0.0,78,0.00,,,0.00,,2013-01-23 00:23:00,
2013-01-22 19:33:00,2.0,-3.0,30.26,NW,306,0.0,0.0,80,0.00,,,0.00,,2013-01-23 00:33:00,
2013-01-22 19:43:00,2.0,-3.0,30.26,NW,306,0.0,0.0,80,0.00,,,0.00,,2013-01-23 00:43:00,
2013-01-22 19:52:00,2.0,-2.0,30.26,NW,306,0.0,0.0,81,0.00,,,0.00,,2013-01-23 00:52:00,
2013-01-22 20:03:00,1.0,-3.0,30.25,NW,306,0.0,0.0,83,0.00,,,0.00,,2013-01-23 01:03:00,
2013-01-22 20:13:00,1.0,-3.0,30.25,NW,306,0.0,0.0,83,0.00,,,0.00,,2013-01-23 01:13:00,
2013-01-22 20:23:00,1.0,-3.0,30.25,NW,307,0.0,0.0,83,0.00,,,0.00,,2013-01-23 01:23:00,
2013-01-22 20:33:00,1.0,-3.0,30.25,NW,319,0.0,0.0,83,0.00,,,0.00,,2013-01-23 01:33:00,
2013-01-22 20:43:00,1.0,-3.0,30.25,NW,319,0.0,0.0,83,0.00,,,0.00,,2013-01-23 01:43:00,
2013-01-22 20:52:00,-1.0,-5.0,30.25,NW,319,0.0,0.0,82,0.00,,,0.00,,2013-01-23 01:52:00,
2013-01-22 21:03:00,-1.0,-5.0,30.25,NW,319,0.0,1.0,84,0.00,,,0.00,,2013-01-23 02:03:00,
2013-01-22 21:13:00,-1.0,-5.0,30.25,NW,319,0.0,1.0,84,0.00,,,0.00,,2013-01-23 02:13:00,
2013-01-22 21:23:00,-2.0,-6.0,30.25,NW,319,0.0,0.0,83,0.00,,,0.00,,2013-01-23 02:23:00,
2013-01-22 21:33:00,-3.0,-7.0,30.25,NW,319,0.0,1.0,84,0.00,,,0.00,,2013-01-23 02:33:00,
2013-01-22 21:43:00,-3.0,-7.0,30.25,NW,319,0.0,1.0,84,0.00,,,0.00,,2013-01-23 02:43:00,
2013-01-22 21:53:00,-3.0,-7.0,30.25,NW,319,0.0,1.0,84,0.00,,,0.00,,2013-01-23 02:53:00,
2013-01-22 22:03:00,-2.0,-6.0,30.25,NW,319,0.0,1.0,84,0.00,,,0.00,,2013-01-23 03:03:00,
2013-01-22 22:13:00,-2.0,-6.0,30.25,NW,319,0.0,1.0,84,0.00,,,0.00,,2013-01-23 03:13:00,
2013-01-22 22:23:00,-3.0,-7.0,30.26,NW,319,0.0,0.0,84,0.00,,,0.00,,2013-01-23 03:23:00,
2013-01-22 22:33:00,-4.0,-8.0,30.26,NW,319,0.0,0.0,83,0.00,,,0.00,,2013-01-23 03:33:00,
2013-01-22 22:43:00,-4.0,-8.0,30.26,NW,319,0.0,0.0,83,0.00,,,0.00,,2013-01-23 03:43:00,
2013-01-22 22:53:00,-5.0,-9.0,30.26,NW,319,0.0,0.0,83,0.00,,,0.00,,2013-01-23 03:53:00,
2013-01-22 23:03:00,-5.0,-9.0,30.26,NW,319,0.0,0.0,83,0.00,,,0.00,,2013-01-23 04:03:00,
2013-01-22 23:13:00,-5.0,-9.0,30.26,NW,319,0.0,0.0,83,0.00,,,0.00,,2013-01-23 04:13:00,
2013-01-22 23:23:00,-5.0,-9.0,30.27,NW,319,0.0,0.0,83,0.00,,,0.00,,2013-01-23 04:23:00,
2013-01-22 23:33:00,-5.0,-9.0,30.27,NW,319,0.0,0.0,84,0.00,,,0.00,,2013-01-23 04:33:00,
2013-01-22 23:43:00,-5.0,-9.0,30.27,NW,319,0.0,0.0,84,0.00,,,0.00,,2013-01-23 04:43:00,
2013-01-22 23:52:00,-5.0,-8.0,30.27,NW,319,0.0,0.0,85,0.00,,,0.00,,2013-01-23 04:52:00,